Aérodrome :
LOGIN :

S'inscrire | Disclaimer

   EN    FR    IT 

 










Légende :    VFR   VFR Marginal   IFR   IFR Intensif   IFR Très Intensif
Visi : 
Plafond : 
>= 8 km
>= 3000ft
5 à 8 km
1000 à 3000 ft
1500m à 5 km
500 à 1000 ft
800 à 1500m
200 à 500 ft
< 800m
< 200 ft
Symboles :   Orages  Brouillard  Fortes neiges  Fortes précipitations  Vent > 20 kt
SIGMETs :   Divers  Orages  Givrage  Turbulence  Onde Orograph.  Cendres Volcan.






- Altitude de l'aérodrome : 239 ft
- Code IATA : VRN


LIPX - Villafranca Int. Verona

DERNIER METAR :
  • 021920Z AUTO 04004KT 340V070 9999 FEW049/// BKN180/// 20/12 Q1010

METARs EXPIRÉS :
  • 021850Z AUTO 15005KT 080V220 9999 -RA BKN073/// 23/07 Q1010 RESHRA
  • 021820Z AUTO 10006KT 060V150 9999 -RA BKN120/// 21/10 Q1010 RESHRA
  • 021750Z AUTO 08014G24KT 040V110 9999 RA BKN034/// BKN088/// 20/11 Q1010
  • 021720Z AUTO 10004KT 9999 -DZ FEW065/// BKN100/// 25/14 Q1010
  • 021650Z AUTO 13004KT 9999 SCT110/// BKN130/// 26/14 Q1010

TAF TAF LIPX
Valide du 02 à 18h jusqu'au 03 à 03h UTC


021700Z 0218/0303 VRB05KT 9999 FEW030
TEMPO 0218/0220 TSRA



MET'MAP, la Météo Aéronautique d'un coup d'oeil ! - Copyright ORBIFLY Décembre 2007 - Disclaimer

ORBIFLY MET'MAP TEAM :

Programmation & Développement : Alexandra Zaïnal
Sur une idée originale de : Baudouin d'Aumeries
Assistance à la programmation : Marc-Olivier Méhu
Soutien technique & logistique : Manuel Goepfert

Contact : metmap@orbifly.com




SOURCES & CREDITS :

   NOAA